Time;durP1;ratioP1;P1;durP2;ratioP2;P2;SDS_P1;SDS_P2;PMS_P1;PMS_P2;Temp;Humidity;BMP_temperature;BMP_pressure;BME280_temperature;BME280_humidity;BME280_pressure;Samples;Min_cycle;Max_cycle;Signal;HPM_P1;HPM_P2
2023/04/03 00:00:02;;;;;;;8.00;3.88;;;;;;;2.33;100.00;161178.75;5070302;28;20032;-61
2023/04/03 00:02:28;;;;;;;6.65;3.53;;;;;;;2.30;100.00;161170.66;5068707;28;20543;-61
2023/04/03 00:04:53;;;;;;;8.68;5.95;;;;;;;2.29;100.00;161169.34;5070310;28;20032;-61
2023/04/03 00:07:18;;;;;;;9.32;3.65;;;;;;;2.30;100.00;161172.03;5069003;28;20044;-61
2023/04/03 00:09:44;;;;;;;8.23;4.32;;;;;;;2.30;100.00;161170.66;5070335;28;20066;-60
2023/04/03 00:12:10;;;;;;;15.27;4.05;;;;;;;2.28;100.00;161165.28;5068638;28;20037;-60
2023/04/03 00:14:36;;;;;;;5.28;4.25;;;;;;;2.22;100.00;161151.88;5070574;28;20107;-59
2023/04/03 00:17:01;;;;;;;11.88;6.07;;;;;;;2.19;100.00;161142.47;5068468;28;20044;-59
2023/04/03 00:19:26;;;;;;;6.95;3.72;;;;;;;2.15;100.00;161131.78;5069978;28;20106;-59
2023/04/03 00:21:53;;;;;;;6.70;3.35;;;;;;;2.11;100.00;161122.38;5068670;28;20423;-60
2023/04/03 00:24:19;;;;;;;6.95;3.45;;;;;;;2.09;100.00;161117.00;5071645;28;20028;-59
2023/04/03 00:26:44;;;;;;;8.75;4.20;;;;;;;2.05;100.00;161107.59;5072663;28;20055;-60
2023/04/03 00:29:10;;;;;;;7.85;4.65;;;;;;;1.99;100.00;161090.13;5072310;28;20028;-60
2023/04/03 00:31:35;;;;;;;5.65;3.80;;;;;;;2.05;100.00;161106.22;5072562;28;20021;-60
2023/04/03 00:34:01;;;;;;;8.63;4.43;;;;;;;2.03;100.00;161100.91;5073773;28;20020;-60
2023/04/03 00:36:26;;;;;;;6.15;4.18;;;;;;;1.85;100.00;161053.94;5072546;28;20041;-59
2023/04/03 00:38:51;;;;;;;9.40;4.25;;;;;;;1.96;100.00;161083.44;5073537;28;20028;-59
2023/04/03 00:41:17;;;;;;;8.60;4.20;;;;;;;1.89;100.00;161066.00;5072010;28;20063;-60
2023/04/03 00:43:42;;;;;;;8.52;4.78;;;;;;;1.86;100.00;161057.94;5073778;28;20152;-60
2023/04/03 00:46:07;;;;;;;6.30;5.07;;;;;;;1.83;100.00;161048.53;5071784;28;20037;-60
2023/04/03 00:48:51;;;;;;;11.75;5.00;;;;;;;1.81;100.00;161044.53;5073753;28;20032;-61
2023/04/03 00:51:22;;;;;;;7.28;4.05;;;;;;;1.80;100.00;161041.84;5072286;28;20087;-58
2023/04/03 00:53:52;;;;;;;8.88;5.15;;;;;;;1.79;100.00;161037.84;5073176;28;20035;-60
2023/04/03 00:56:21;;;;;;;7.95;3.80;;;;;;;1.76;100.00;161031.09;5071986;28;20522;-60
2023/04/03 00:58:52;;;;;;;6.60;4.32;;;;;;;1.74;100.00;161025.75;5073543;28;20025;-61
2023/04/03 01:01:22;;;;;;;10.82;6.22;;;;;;;1.70;100.00;161015.00;5071582;28;20086;-61
2023/04/03 01:03:48;;;;;;;4.72;3.72;;;;;;;1.65;100.00;161002.91;5073191;28;20025;-61
2023/04/03 01:06:16;;;;;;;16.42;6.18;;;;;;;1.61;100.00;160992.19;5072078;28;20050;-61
2023/04/03 01:08:42;;;;;;;7.38;4.78;;;;;;;1.58;100.00;160985.50;5073141;28;20028;-61
2023/04/03 01:11:08;;;;;;;9.20;5.47;;;;;;;1.54;100.00;160974.75;5071595;28;20391;-61
2023/04/03 01:13:33;;;;;;;6.90;3.97;;;;;;;1.49;100.00;160961.34;5073560;28;20074;-61
2023/04/03 01:16:05;;;;;;;9.35;6.20;;;;;;;1.44;100.00;160947.94;5071121;28;20499;-63
2023/04/03 01:18:31;;;;;;;10.50;4.82;;;;;;;1.42;100.00;160942.56;5073070;28;20017;-61
2023/04/03 01:21:28;;;;;;;6.05;4.28;;;;;;;1.38;100.00;160933.16;5071465;28;20143;-61
2023/04/03 01:24:18;;;;;;;4.80;3.70;;;;;;;1.33;100.00;160918.41;5072307;28;20035;-61
2023/04/03 01:26:44;;;;;;;9.88;5.10;;;;;;;1.28;100.00;160906.31;5071696;28;20075;-61
2023/04/03 01:29:11;;;;;;;10.65;5.10;;;;;;;1.26;100.00;160902.31;5071334;28;20020;-61
2023/04/03 01:31:59;;;;;;;4.55;4.05;;;;;;;1.21;100.00;160887.53;5072778;28;20012;-60
2023/04/03 01:34:25;;;;;;;;;;;;;;;1.16;100.00;160875.47;5072156;28;20044;-61
2023/04/03 01:36:51;;;;;;;14.05;4.70;;;;;;;1.02;100.00;160837.91;5071639;28;19912;-61
2023/04/03 01:39:16;;;;;;;6.90;4.60;;;;;;;1.11;100.00;160862.06;5070987;28;20620;-62
2023/04/03 01:41:42;;;;;;;9.75;5.38;;;;;;;1.09;100.00;160858.06;5072723;28;20025;-62
2023/04/03 01:44:08;;;;;;;11.55;4.60;;;;;;;1.08;100.00;160854.06;5071156;28;20636;-62
2023/04/03 01:46:33;;;;;;;11.13;6.03;;;;;;;1.07;100.00;160851.38;5072427;28;20032;-62
2023/04/03 01:48:58;;;;;;;8.50;4.13;;;;;;;1.01;100.00;160835.22;5072508;28;20020;-61
2023/04/03 01:51:24;;;;;;;8.57;5.03;;;;;;;0.98;100.00;160827.22;5071435;28;20032;-60
2023/04/03 01:53:49;;;;;;;4.82;4.03;;;;;;;0.97;100.00;160824.53;5072065;28;20416;-62
2023/04/03 01:56:15;;;;;;;6.88;5.15;;;;;;;0.92;100.00;160812.44;5071058;28;20106;-62
2023/04/03 01:58:40;;;;;;;10.93;4.97;;;;;;;0.88;100.00;160803.06;5072578;28;20031;-61
2023/04/03 02:01:06;;;;;;;6.22;4.75;;;;;;;0.88;100.00;160801.75;5070230;28;20040;-61
2023/04/03 02:03:31;;;;;;;9.40;4.25;;;;;;;0.84;100.00;160790.97;5072151;28;20028;-61
2023/04/03 02:05:57;;;;;;;7.25;4.35;;;;;;;0.86;100.00;160797.69;5070815;28;20109;-61
2023/04/03 02:08:23;;;;;;;10.65;4.75;;;;;;;0.83;100.00;160789.66;5071867;28;20477;-61
2023/04/03 02:10:49;;;;;;;7.53;5.00;;;;;;;0.81;100.00;160782.97;5070328;28;20032;-63
2023/04/03 02:13:15;;;;;;;5.97;3.72;;;;;;;0.80;100.00;160781.59;5072098;28;20052;-62
2023/04/03 02:15:41;;;;;;;7.53;4.63;;;;;;;0.76;100.00;160770.91;5070308;28;20047;-63
2023/04/03 02:18:07;;;;;;;4.93;4.43;;;;;;;0.73;100.00;160762.84;5071849;28;20024;-63
2023/04/03 02:20:32;;;;;;;9.07;5.63;;;;;;;0.72;100.00;160760.13;5070364;28;20056;-63
2023/04/03 02:22:58;;;;;;;11.25;4.70;;;;;;;0.69;100.00;160752.13;5071189;28;20468;-63
2023/04/03 02:25:23;;;;;;;4.60;4.20;;;;;;;0.61;100.00;160733.34;5070205;28;20131;-63
2023/04/03 02:27:49;;;;;;;14.85;6.82;;;;;;;0.56;100.00;160719.91;5071730;28;20020;-61
2023/04/03 02:30:15;;;;;;;6.38;3.78;;;;;;;0.54;100.00;160714.59;5070154;28;20037;-60
2023/04/03 02:32:42;;;;;;;9.65;5.65;;;;;;;0.51;100.00;160705.22;5071834;28;20378;-62
2023/04/03 02:35:07;;;;;;;6.97;4.60;;;;;;;0.48;100.00;160698.50;5070167;28;20051;-62
2023/04/03 02:37:33;;;;;;;6.68;4.03;;;;;;;0.44;100.00;160687.75;5071327;28;20029;-62
2023/04/03 02:39:59;;;;;;;7.57;4.43;;;;;;;0.38;100.00;160671.69;5069815;28;20048;-63
2023/04/03 02:42:24;;;;;;;6.85;6.05;;;;;;;0.33;100.00;160659.63;5071468;28;20031;-62
2023/04/03 02:44:49;;;;;;;12.80;5.60;;;;;;;0.28;100.00;160647.53;5069536;28;20035;-62
2023/04/03 02:47:15;;;;;;;5.05;4.30;;;;;;;0.23;100.00;160634.16;5071477;28;20028;-62
2023/04/03 02:49:41;;;;;;;12.75;5.32;;;;;;;0.19;100.00;160623.41;5070087;28;20036;-65
2023/04/03 02:52:06;;;;;;;7.35;5.07;;;;;;;0.16;100.00;160615.41;5070990;28;20094;-65
2023/04/03 02:54:31;;;;;;;9.75;4.93;;;;;;;0.13;100.00;160608.69;5069511;28;20037;-64
2023/04/03 02:56:57;;;;;;;5.97;4.55;;;;;;;0.11;100.00;160602.00;5071190;28;20028;-64
2023/04/03 02:59:23;;;;;;;6.95;5.53;;;;;;;-0.02;100.00;160569.81;5069341;28;20502;-64
2023/04/03 03:01:48;;;;;;;9.38;5.22;;;;;;;0.10;100.00;160599.31;5070789;28;20024;-64
2023/04/03 03:04:14;;;;;;;11.98;5.00;;;;;;;0.07;100.00;160591.25;5069690;28;20471;-64
2023/04/03 03:06:39;;;;;;;11.20;7.22;;;;;;;0.06;100.00;160588.56;5070902;28;20078;-61
2023/04/03 03:09:06;;;;;;;10.15;4.90;;;;;;;0.06;100.00;160589.94;5070990;28;20802;-62
2023/04/03 03:11:31;;;;;;;6.80;6.13;;;;;;;0.02;100.00;160577.88;5069600;28;20040;-62
2023/04/03 03:13:57;;;;;;;7.60;4.30;;;;;;;0.03;100.00;160581.88;5070563;28;20405;-62
2023/04/03 03:16:22;;;;;;;7.82;3.95;;;;;;;-0.01;100.00;160572.50;5069593;28;20040;-62
2023/04/03 03:18:47;;;;;;;4.70;4.00;;;;;;;-0.05;100.00;160560.44;5070617;28;20426;-63
2023/04/03 03:21:13;;;;;;;9.23;4.55;;;;;;;-0.10;100.00;160548.38;5069095;28;20036;-62
2023/04/03 03:23:39;;;;;;;6.43;4.43;;;;;;;-0.12;100.00;160543.03;5070958;28;20029;-62
2023/04/03 03:26:06;;;;;;;8.63;5.18;;;;;;;-0.28;100.00;160500.16;5069165;28;20089;-60
2023/04/03 03:28:32;;;;;;;6.05;4.20;;;;;;;-0.20;100.00;160521.59;5069780;28;20036;-61
2023/04/03 03:30:58;;;;;;;7.10;4.35;;;;;;;-0.42;100.00;160465.34;5068571;28;20068;-60
2023/04/03 03:33:25;;;;;;;8.13;3.92;;;;;;;-0.28;100.00;160500.16;5070541;28;20107;-61
2023/04/03 03:35:50;;;;;;;6.15;5.57;;;;;;;-0.30;100.00;160494.78;5068718;28;20045;-60
2023/04/03 03:38:16;;;;;;;11.13;4.43;;;;;;;-0.38;100.00;160476.03;5070470;28;20027;-60
2023/04/03 03:40:41;;;;;;;9.85;4.97;;;;;;;-0.39;100.00;160473.34;5069248;28;20037;-60
2023/04/03 03:43:06;;;;;;;11.85;8.20;;;;;;;-0.42;100.00;160465.34;5069852;28;20016;-60
2023/04/03 03:45:32;;;;;;;7.90;5.55;;;;;;;-0.47;100.00;160451.91;5069170;28;20486;-60
2023/04/03 03:47:57;;;;;;;12.55;6.32;;;;;;;-0.47;100.00;160451.91;5070435;28;20036;-60
2023/04/03 03:50:22;;;;;;;13.45;4.47;;;;;;;-0.52;100.00;160438.53;5069006;28;20040;-60
2023/04/03 03:52:48;;;;;;;6.82;5.07;;;;;;;-0.56;100.00;160427.81;5069607;28;20033;-60
2023/04/03 03:55:13;;;;;;;7.28;4.82;;;;;;;-0.68;100.00;160398.34;5068893;28;20126;-58
2023/04/03 03:57:39;;;;;;;5.00;4.50;;;;;;;-0.61;100.00;160414.41;5070664;28;20074;-58
2023/04/03 04:00:06;;;;;;;8.05;4.97;;;;;;;-0.68;100.00;160397.00;5071573;28;20523;-59
2023/04/03 04:02:32;;;;;;;14.75;5.32;;;;;;;-0.67;100.00;160401.03;5074706;28;20028;-59
2023/04/03 04:04:57;;;;;;;4.93;4.22;;;;;;;-0.78;100.00;160370.22;5072986;28;20102;-58
2023/04/03 04:07:23;;;;;;;11.52;5.35;;;;;;;-0.71;100.00;160390.28;5074298;28;20036;-58
2023/04/03 04:09:48;;;;;;;19.42;9.68;;;;;;;-0.76;100.00;160376.91;5072737;28;20048;-58
2023/04/03 04:12:14;;;;;;;8.90;4.45;;;;;;;-0.78;100.00;160371.53;5074490;28;20025;-58
2023/04/03 04:14:39;;;;;;;9.55;4.68;;;;;;;-1.10;100.00;160288.53;5072728;28;20066;-58
2023/04/03 04:17:05;;;;;;;8.38;4.57;;;;;;;-0.89;100.00;160342.09;5074209;28;20028;-57
2023/04/03 04:19:30;;;;;;;9.63;4.40;;;;;;;-0.91;100.00;160336.72;5072624;28;20127;-58
2023/04/03 04:21:55;;;;;;;6.90;4.88;;;;;;;-0.95;100.00;160327.34;5073708;28;20388;-58
2023/04/03 04:24:22;;;;;;;8.60;4.55;;;;;;;-0.97;100.00;160323.34;5072784;28;20024;-58
2023/04/03 04:26:48;;;;;;;6.20;4.00;;;;;;;-1.00;100.00;160313.97;5073433;28;20103;-59
2023/04/03 04:29:13;;;;;;;5.18;4.40;;;;;;;-1.01;100.00;160311.28;5061723;28;20028;-58
2023/04/03 04:31:38;;;;;;;8.95;4.10;;;;;;;-1.03;100.00;160307.28;5064726;28;20025;-58
2023/04/03 04:34:04;;;;;;;14.15;4.63;;;;;;;-1.06;100.00;160297.91;5059162;28;20029;-57
2023/04/03 04:36:29;;;;;;;5.82;4.40;;;;;;;-1.08;100.00;160293.84;5052398;28;20036;-58
2023/04/03 04:38:55;;;;;;;16.33;7.28;;;;;;;-1.08;100.00;160293.84;5053745;28;20071;-58
2023/04/03 04:41:23;;;;;;;5.32;4.68;;;;;;;-1.08;100.00;160293.84;5054710;28;20155;-58
2023/04/03 04:43:50;;;;;;;11.75;5.20;;;;;;;-1.08;100.00;160293.84;5073495;28;20029;-58
2023/04/03 04:46:15;;;;;;;15.27;5.95;;;;;;;-1.11;100.00;160285.84;5072548;28;20406;-58
2023/04/03 04:48:41;;;;;;;13.80;5.72;;;;;;;-1.13;100.00;160281.84;5074040;28;20036;-58
2023/04/03 04:51:06;;;;;;;6.22;5.35;;;;;;;-1.16;100.00;160272.47;5071654;28;20039;-58
2023/04/03 04:53:32;;;;;;;10.18;4.75;;;;;;;-1.18;100.00;160267.09;5073807;28;20016;-58
2023/04/03 04:55:57;;;;;;;8.73;6.25;;;;;;;-1.14;100.00;160277.78;5072075;28;20085;-58
2023/04/03 04:58:22;;;;;;;12.55;5.20;;;;;;;-1.14;100.00;160279.16;5073132;28;20016;-58
2023/04/03 05:00:48;;;;;;;13.30;6.50;;;;;;;-1.37;100.00;160218.88;5071742;28;20036;-58
2023/04/03 05:03:13;;;;;;;15.45;6.85;;;;;;;-1.12;100.00;160283.16;5073177;28;20147;-58
2023/04/03 05:05:39;;;;;;;9.40;7.00;;;;;;;-1.11;100.00;160285.84;5071575;28;20044;-58
2023/04/03 05:08:04;;;;;;;9.02;6.10;;;;;;;-1.07;100.00;160296.53;5072879;28;20028;-58
2023/04/03 05:10:31;;;;;;;11.77;5.95;;;;;;;-1.07;100.00;160296.53;5070383;28;20037;-58
2023/04/03 05:12:56;;;;;;;6.07;5.10;;;;;;;-1.08;100.00;160293.84;5072793;28;20035;-58
2023/04/03 05:15:22;;;;;;;9.38;4.85;;;;;;;-1.09;100.00;160291.22;5072071;28;20045;-58
2023/04/03 05:17:47;;;;;;;13.30;4.70;;;;;;;-1.09;100.00;160289.84;5072955;28;20029;-58
2023/04/03 05:20:12;;;;;;;5.47;4.60;;;;;;;-1.08;100.00;160293.84;5071072;28;20101;-58
2023/04/03 05:22:38;;;;;;;8.20;5.28;;;;;;;-1.03;100.00;160307.28;5072962;28;20047;-58
2023/04/03 05:25:04;;;;;;;12.57;6.30;;;;;;;-1.03;100.00;160307.28;5071234;28;20036;-58
2023/04/03 05:27:29;;;;;;;17.25;6.68;;;;;;;-1.04;100.00;160304.59;5071528;28;20154;-58
2023/04/03 05:29:55;;;;;;;12.18;5.13;;;;;;;-1.02;100.00;160309.97;5071055;28;20115;-58
2023/04/03 05:32:22;;;;;;;9.35;4.80;;;;;;;-1.03;100.00;160307.28;5072849;28;20432;-58
2023/04/03 05:34:48;;;;;;;11.77;5.60;;;;;;;-0.95;100.00;160327.34;5070729;28;20045;-58
2023/04/03 05:37:13;;;;;;;9.05;4.80;;;;;;;-0.91;100.00;160336.72;5072627;28;20411;-58
2023/04/03 05:39:40;;;;;;;8.00;5.28;;;;;;;-0.88;100.00;160344.78;5071191;28;20040;-58
2023/04/03 05:42:07;;;;;;;11.80;5.35;;;;;;;-0.86;100.00;160350.16;5064655;28;20320;-59
2023/04/03 05:44:32;;;;;;;12.43;6.32;;;;;;;-0.87;100.00;160348.78;5065452;28;20036;-58
2023/04/03 05:46:58;;;;;;;10.57;5.38;;;;;;;-0.86;100.00;160350.16;5052350;28;20059;-59
2023/04/03 05:49:23;;;;;;;10.13;5.63;;;;;;;-0.81;100.00;160363.53;5053761;28;20052;-58
2023/04/03 05:51:49;;;;;;;7.90;5.75;;;;;;;-0.79;100.00;160368.88;5072265;28;20032;-58
2023/04/03 05:54:27;;;;;;;8.10;4.40;;;;;;;-0.74;100.00;160382.28;5071063;28;20017;-58
2023/04/03 05:56:53;;;;;;;8.45;5.63;;;;;;;-0.68;100.00;160398.34;5071342;28;20484;-58
2023/04/03 05:59:19;;;;;;;6.53;3.78;;;;;;;-0.65;100.00;160406.38;5065968;28;20090;-58
2023/04/03 06:01:44;;;;;;;6.72;4.63;;;;;;;-0.57;100.00;160425.13;5052305;28;20037;-58
2023/04/03 06:04:10;;;;;;;10.75;4.97;;;;;;;-0.53;100.00;160435.84;5064750;28;20035;-58
2023/04/03 06:06:48;;;;;;;6.63;4.35;;;;;;;-0.49;100.00;160446.56;5072107;28;20028;-58
2023/04/03 06:09:15;;;;;;;12.20;6.15;;;;;;;-0.39;100.00;160473.34;5070733;28;20024;-58
2023/04/03 06:11:41;;;;;;;10.05;5.00;;;;;;;-0.30;100.00;160494.78;5071737;28;20065;-58
2023/04/03 06:14:07;;;;;;;7.80;4.32;;;;;;;-0.25;100.00;160508.16;5070477;28;20024;-58
2023/04/03 06:16:33;;;;;;;9.45;4.65;;;;;;;-0.17;100.00;160529.59;5072139;28;20024;-58
2023/04/03 06:18:58;;;;;;;13.75;5.65;;;;;;;-0.12;100.00;160541.69;5071011;28;20507;-58
2023/04/03 06:21:24;;;;;;;14.98;5.53;;;;;;;-0.06;100.00;160559.13;5069933;28;20029;-58
2023/04/03 06:23:51;;;;;;;8.52;4.57;;;;;;;0.02;100.00;160577.88;5071395;28;20020;-58
2023/04/03 06:26:16;;;;;;;9.05;5.45;;;;;;;0.06;100.00;160588.56;5070070;28;20041;-58
2023/04/03 06:28:42;;;;;;;8.32;5.93;;;;;;;0.14;100.00;160610.00;5068742;28;20040;-58
2023/04/03 06:31:08;;;;;;;10.00;5.55;;;;;;;0.22;100.00;160631.47;5069885;28;20040;-58
2023/04/03 06:33:34;;;;;;;6.60;5.45;;;;;;;0.28;100.00;160647.53;5071406;28;20031;-58
2023/04/03 06:36:03;;;;;;;10.50;5.32;;;;;;;0.36;100.00;160667.69;5069730;28;20043;-58
2023/04/03 06:38:28;;;;;;;5.72;4.35;;;;;;;0.43;100.00;160686.44;5071350;28;20475;-58
2023/04/03 06:40:54;;;;;;;8.25;3.83;;;;;;;0.48;100.00;160698.50;5065053;28;20044;-58
2023/04/03 06:43:20;;;;;;;9.50;4.28;;;;;;;0.53;100.00;160711.91;5061763;28;20028;-58
2023/04/03 06:45:46;;;;;;;7.30;3.45;;;;;;;0.58;100.00;160725.28;5048350;28;20048;-58
2023/04/03 06:48:12;;;;;;;9.80;4.22;;;;;;;0.67;100.00;160746.75;5050090;28;20017;-58
2023/04/03 06:50:37;;;;;;;10.27;5.88;;;;;;;0.73;100.00;160762.84;5059403;28;20063;-59
2023/04/03 06:53:03;;;;;;;10.88;4.45;;;;;;;0.85;100.00;160793.69;5057318;28;20089;-58
2023/04/03 06:55:28;;;;;;;8.15;4.97;;;;;;;0.92;100.00;160812.44;5059612;28;20090;-58
2023/04/03 06:57:54;;;;;;;13.32;5.43;;;;;;;1.04;100.00;160843.28;5064182;28;20074;-59
2023/04/03 07:00:20;;;;;;;4.82;2.92;;;;;;;1.10;100.00;160859.38;5052252;28;20040;-58
2023/04/03 07:02:45;;;;;;;6.65;4.35;;;;;;;1.12;100.00;160864.75;5050708;28;20028;-58
2023/04/03 07:05:11;;;;;;;5.78;3.80;;;;;;;1.21;100.00;160888.91;5058586;28;20044;-59
2023/04/03 07:07:37;;;;;;;4.75;4.35;;;;;;;1.30;100.00;160910.38;5070818;28;20430;-59
2023/04/03 07:10:03;;;;;;;5.07;3.83;;;;;;;1.41;100.00;160939.88;5069374;28;20041;-58
2023/04/03 07:12:28;;;;;;;5.05;4.65;;;;;;;1.53;100.00;160972.03;5070490;28;20079;-58
2023/04/03 07:14:54;;;;;;;6.70;3.97;;;;;;;1.65;100.00;161002.91;5069135;28;20039;-59
2023/04/03 07:17:20;;;;;;;7.85;4.68;;;;;;;1.75;100.00;161028.38;5070864;28;20021;-59
2023/04/03 07:19:45;;;;;;;22.25;5.50;;;;;;;1.96;100.00;161082.09;5068424;28;20045;-58
2023/04/03 07:22:11;;;;;;;10.25;4.25;;;;;;;2.15;100.00;161133.09;5054802;28;20492;-58
2023/04/03 07:24:36;;;;;;;5.43;3.75;;;;;;;2.26;100.00;161161.28;5065661;28;20040;-59
2023/04/03 07:27:02;;;;;;;3.45;3.13;;;;;;;2.55;100.00;161236.44;5050437;28;20416;-58
2023/04/03 07:29:28;;;;;;;5.78;3.13;;;;;;;2.88;100.00;161321.03;5049528;28;20036;-58
2023/04/03 07:31:55;;;;;;;11.20;4.82;;;;;;;3.49;100.00;161480.91;5050644;28;20464;-58
2023/04/03 07:34:20;;;;;;;3.42;2.42;;;;;;;4.20;100.00;161665.00;5047203;28;20587;-58
2023/04/03 07:36:46;;;;;;;8.02;2.38;;;;;;;4.20;100.00;161665.00;5070344;28;20107;-59
2023/04/03 07:39:11;;;;;;;8.23;3.72;;;;;;;6.70;100.00;162316.13;5069019;28;20592;-59
2023/04/03 07:41:37;;;;;;;5.35;3.28;;;;;;;8.23;100.00;162717.53;5070085;28;20012;-58
2023/04/03 07:44:02;;;;;;;3.78;2.70;;;;;;;8.75;100.00;162852.38;5068849;28;20475;-59
2023/04/03 07:46:28;;;;;;;6.07;2.30;;;;;;;9.04;100.00;162929.25;5069112;28;20044;-59
2023/04/03 07:48:53;;;;;;;6.03;2.42;;;;;;;9.79;100.00;163123.47;5069989;28;20043;-59
2023/04/03 07:51:19;;;;;;;2.95;1.73;;;;;;;10.54;100.00;163319.19;5069241;28;20036;-59
2023/04/03 07:53:44;;;;;;;3.70;2.20;;;;;;;10.90;100.00;163415.03;5067425;28;20024;-59
2023/04/03 07:56:10;;;;;;;8.18;4.03;;;;;;;11.26;100.00;163509.56;5064848;28;20043;-59
2023/04/03 07:58:36;;;;;;;2.90;2.08;;;;;;;10.99;100.00;163437.97;5053785;28;20029;-59
2023/04/03 08:01:02;;;;;;;3.70;2.08;;;;;;;10.86;100.00;163402.88;5064459;28;20060;-59
2023/04/03 08:03:27;;;;;;;2.75;1.92;;;;;;;11.18;100.00;163487.94;5057392;28;20111;-59
2023/04/03 08:05:53;;;;;;;6.13;2.50;;;;;;;11.41;100.00;163548.75;5064430;28;20044;-59
2023/04/03 08:08:21;;;;;;;2.63;2.22;;;;;;;10.72;100.00;163367.78;5070381;28;20040;-59
2023/04/03 08:10:53;;;;;;;7.03;2.80;;;;;;;10.81;100.00;163389.41;5049494;28;20029;-59
2023/04/03 08:13:19;;;;;;;3.90;1.88;;;;;;;11.64;100.00;163608.16;5050129;28;20036;-59
2023/04/03 08:15:45;;;;;;;6.47;2.60;;;;;;;11.64;100.00;163608.16;5048692;28;20033;-59
2023/04/03 08:18:11;;;;;;;3.72;2.10;;;;;;;11.08;100.00;163460.97;5049794;28;20070;-59
2023/04/03 08:20:38;;;;;;;5.57;2.15;;;;;;;11.52;100.00;163575.72;5061334;28;20131;-59
2023/04/03 08:23:03;;;;;;;4.63;2.47;;;;;;;10.87;100.00;163405.59;5069754;28;20498;-59
2023/04/03 08:25:29;;;;;;;5.35;3.00;;;;;;;11.04;100.00;163451.50;5068183;28;20033;-59
2023/04/03 08:27:55;;;;;;;4.43;2.95;;;;;;;11.49;100.00;163567.63;5069977;28;20020;-59
2023/04/03 08:30:21;;;;;;;4.43;2.20;;;;;;;11.39;100.00;163543.31;5068668;28;20044;-59
2023/04/03 08:32:47;;;;;;;3.40;2.22;;;;;;;11.38;100.00;163540.63;5069179;28;20021;-59
2023/04/03 08:35:12;;;;;;;2.67;2.17;;;;;;;11.21;97.54;163496.06;5068843;28;20040;-59
2023/04/03 08:37:39;;;;;;;4.85;1.98;;;;;;;11.16;99.03;163481.19;5070104;28;20020;-59
2023/04/03 08:40:07;;;;;;;3.83;1.52;;;;;;;11.50;100.00;163570.34;5067921;28;20052;-59
2023/04/03 08:42:53;;;;;;;2.92;2.42;;;;;;;11.63;100.00;163605.47;5065421;28;20626;-59
2023/04/03 08:45:43;;;;;;;5.10;2.08;;;;;;;11.81;95.27;163652.72;5050088;28;20057;-59
2023/04/03 08:48:30;;;;;;;1.70;1.40;;;;;;;11.83;100.00;163656.75;5053160;28;20461;-59
2023/04/03 08:50:59;;;;;;;2.00;1.50;;;;;;;11.69;90.62;163621.66;5062276;28;20036;-59
2023/04/03 08:53:30;;;;;;;6.00;1.60;;;;;;;10.95;87.00;163428.53;5065840;28;20039;-59
2023/04/03 08:55:57;;;;;;;2.63;1.90;;;;;;;10.03;86.04;163185.56;5054336;28;20044;-59
2023/04/03 08:58:26;;;;;;;2.95;2.75;;;;;;;9.60;89.42;163074.94;5063098;28;20020;-59
2023/04/03 09:00:52;;;;;;;4.30;2.00;;;;;;;9.41;92.16;163025.03;5071749;28;20040;-59
2023/04/03 09:03:19;;;;;;;4.38;2.10;;;;;;;9.55;94.58;163061.41;5070557;28;20126;-59
2023/04/03 09:05:48;;;;;;;1.60;1.50;;;;;;;9.66;93.28;163089.75;5058111;28;20044;-59
2023/04/03 09:08:30;;;;;;;3.22;1.60;;;;;;;10.16;93.56;163221.94;5053569;28;20031;-59
2023/04/03 09:11:16;;;;;;;3.88;1.67;;;;;;;9.92;92.73;163157.22;5050838;28;20040;-59
2023/04/03 09:14:15;;;;;;;2.58;2.25;;;;;;;10.08;93.25;163199.03;5053525;28;20029;-59
2023/04/03 09:16:52;;;;;;;7.80;2.42;;;;;;;9.91;90.71;163154.50;5063846;28;20045;-59
2023/04/03 09:19:21;;;;;;;2.60;2.40;;;;;;;9.88;88.07;163147.78;5071840;28;20517;-59
2023/04/03 09:21:47;;;;;;;1.90;1.70;;;;;;;10.11;96.16;163208.47;5072810;28;20190;-59
2023/04/03 09:24:16;;;;;;;8.02;2.45;;;;;;;10.41;90.93;163286.81;5071417;28;20543;-59
2023/04/03 09:26:56;;;;;;;1.75;1.38;;;;;;;10.46;86.12;163300.28;5073373;28;20028;-59
2023/04/03 09:29:23;;;;;;;3.00;1.75;;;;;;;10.56;81.09;163325.97;5071647;28;20539;-59
2023/04/03 09:31:52;;;;;;;3.00;1.58;;;;;;;10.85;87.13;163401.56;5072497;28;20112;-59
2023/04/03 09:34:23;;;;;;;1.42;1.33;;;;;;;10.74;79.85;163373.22;5071714;28;20016;-59
2023/04/03 09:36:51;;;;;;;1.75;1.45;;;;;;;10.60;78.03;163335.41;5072074;28;20020;-59
2023/04/03 09:39:29;;;;;;;2.00;1.30;;;;;;;10.75;78.77;163374.53;5066330;28;20399;-59
2023/04/03 09:42:05;;;;;;;1.58;1.40;;;;;;;10.24;75.02;163240.91;5039513;28;20108;-59
2023/04/03 09:44:38;;;;;;;1.92;1.67;;;;;;;10.37;79.15;163276.03;5051280;28;20037;-59
2023/04/03 09:47:35;;;;;;;3.25;1.40;;;;;;;10.30;75.75;163257.09;5052243;28;20074;-59
2023/04/03 09:50:13;;;;;;;2.95;2.60;;;;;;;10.58;81.29;163330.00;5051171;28;20043;-59
2023/04/03 09:52:39;;;;;;;2.05;1.23;;;;;;;10.38;75.50;163278.72;5052641;28;20503;-59
2023/04/03 09:55:15;;;;;;;2.60;2.40;;;;;;;10.36;73.77;163273.25;5050567;28;20041;-59
2023/04/03 09:57:41;;;;;;;1.67;1.58;;;;;;;10.45;81.58;163296.25;5051844;28;20483;-59
2023/04/03 10:00:21;;;;;;;2.70;1.42;;;;;;;10.56;75.02;163324.59;5050826;28;20037;-59
2023/04/03 10:02:51;;;;;;;3.22;1.77;;;;;;;10.46;77.49;163300.28;5051864;28;20388;-59
2023/04/03 10:05:37;;;;;;;2.85;1.60;;;;;;;10.72;77.54;163367.78;5051098;28;20385;-59
2023/04/03 10:08:15;;;;;;;2.13;1.73;;;;;;;10.75;72.50;163375.91;5052184;28;20016;-59
2023/04/03 10:10:42;;;;;;;1.83;1.70;;;;;;;10.79;71.55;163386.69;5050936;28;20033;-59
2023/04/03 10:13:20;;;;;;;2.13;1.60;;;;;;;11.04;74.60;163451.50;5051366;28;20082;-59
2023/04/03 10:16:01;;;;;;;3.05;2.75;;;;;;;10.68;71.84;163355.63;5048578;28;20052;-59
2023/04/03 10:18:27;;;;;;;2.15;1.90;;;;;;;11.43;80.02;163554.09;5051840;28;20063;-59
2023/04/03 10:20:57;;;;;;;3.45;2.35;;;;;;;11.58;73.29;163591.91;5049756;28;20148;-59
2023/04/03 10:23:42;;;;;;;2.20;1.67;;;;;;;11.61;74.94;163600.03;5051239;28;20025;-59
2023/04/03 10:26:35;;;;;;;2.95;2.33;;;;;;;11.69;70.80;163621.66;5049523;28;20132;-59
2023/04/03 10:29:21;;;;;;;2.35;1.63;;;;;;;11.56;70.85;163586.53;5050986;28;20087;-59
2023/04/03 10:31:55;;;;;;;2.30;1.73;;;;;;;11.47;69.45;163562.22;5070035;28;20090;-59
2023/04/03 10:34:28;;;;;;;1.60;1.50;;;;;;;11.51;72.87;163573.00;5071208;28;20020;-59
2023/04/03 10:37:37;;;;;;;1.45;1.35;;;;;;;11.27;70.36;163510.94;5069953;28;20228;-59
2023/04/03 10:40:22;;;;;;;1.67;1.45;;;;;;;11.47;79.57;163562.22;5068376;28;20036;-59
2023/04/03 10:42:58;;;;;;;2.42;1.90;;;;;;;12.08;77.35;163721.69;5071076;28;20071;-59
2023/04/03 10:45:43;;;;;;;2.83;1.75;;;;;;;11.18;70.89;163487.94;5069791;28;20040;-59
2023/04/03 10:48:23;;;;;;;2.05;1.73;;;;;;;11.26;75.91;163508.22;5071052;28;20028;-59
2023/04/03 10:51:07;;;;;;;2.22;1.60;;;;;;;11.26;72.43;163508.22;5069665;28;20040;-59
2023/04/03 10:53:51;;;;;;;1.50;1.40;;;;;;;10.98;69.48;163435.31;5071045;28;20023;-59
2023/04/03 10:56:37;;;;;;;2.45;2.25;;;;;;;10.44;69.52;163294.91;5069759;28;20123;-59
2023/04/03 10:59:27;;;;;;;1.60;1.50;;;;;;;11.33;75.90;163527.13;5071054;28;20067;-59
2023/04/03 11:01:56;;;;;;;2.65;1.67;;;;;;;11.02;69.52;163446.09;5068970;28;20093;-59
2023/04/03 11:04:25;;;;;;;4.15;1.83;;;;;;;10.75;68.33;163374.53;5071111;28;20020;-59
2023/04/03 11:07:01;;;;;;;1.88;1.77;;;;;;;10.72;69.78;163366.47;5069458;28;20092;-59
2023/04/03 11:09:41;;;;;;;1.95;1.75;;;;;;;10.90;74.46;163413.72;5070646;28;20028;-59
2023/04/03 11:12:15;;;;;;;2.97;1.67;;;;;;;11.01;70.52;163443.38;5069382;28;20037;-59
2023/04/03 11:14:41;;;;;;;5.55;2.63;;;;;;;11.40;72.46;163546.03;5071049;28;20025;-59
2023/04/03 11:17:39;;;;;;;4.78;1.90;;;;;;;11.15;68.88;163478.47;5068958;28;20048;-59
2023/04/03 11:20:10;;;;;;;;;;;;;;;11.07;74.98;163459.59;5069096;28;20121;-59
2023/04/03 11:22:40;;;;;;;4.82;2.28;;;;;;;11.31;82.39;163520.38;5070626;28;19904;-59
2023/04/03 11:25:16;;;;;;;2.40;1.70;;;;;;;11.23;77.53;163500.09;5069067;28;20025;-59
2023/04/03 11:27:45;;;;;;;3.72;1.45;;;;;;;10.84;80.95;163397.47;5070851;28;20028;-59